sensor_id;sensor_type;location;lat;lon;timestamp;temperature;humidity
24614;DHT22;12760;46.296;25.290;2023-05-10T00:00:00;9.60;99.90
24614;DHT22;12760;46.296;25.290;2023-05-10T00:02:26;9.60;99.90
24614;DHT22;12760;46.296;25.290;2023-05-10T00:04:52;9.70;99.90
24614;DHT22;12760;46.296;25.290;2023-05-10T00:07:17;9.80;99.90
24614;DHT22;12760;46.296;25.290;2023-05-10T00:09:43;9.70;99.90
24614;DHT22;12760;46.296;25.290;2023-05-10T00:12:09;9.60;99.90
24614;DHT22;12760;46.296;25.290;2023-05-10T00:14:35;9.60;99.90
24614;DHT22;12760;46.296;25.290;2023-05-10T00:17:01;9.70;99.90
24614;DHT22;12760;46.296;25.290;2023-05-10T00:19:27;9.60;99.90
24614;DHT22;12760;46.296;25.290;2023-05-10T00:21:52;9.60;99.90
24614;DHT22;12760;46.296;25.290;2023-05-10T00:24:18;9.60;99.90
24614;DHT22;12760;46.296;25.290;2023-05-10T00:26:44;9.60;99.90
24614;DHT22;12760;46.296;25.290;2023-05-10T00:29:10;9.60;99.90
24614;DHT22;12760;46.296;25.290;2023-05-10T00:31:35;9.50;99.90
24614;DHT22;12760;46.296;25.290;2023-05-10T00:34:01;9.40;99.90
24614;DHT22;12760;46.296;25.290;2023-05-10T00:36:27;9.40;99.90
24614;DHT22;12760;46.296;25.290;2023-05-10T00:38:53;9.30;99.90
24614;DHT22;12760;46.296;25.290;2023-05-10T00:41:19;9.30;99.90
24614;DHT22;12760;46.296;25.290;2023-05-10T00:43:46;9.30;99.90
24614;DHT22;12760;46.296;25.290;2023-05-10T00:46:13;9.40;99.90
24614;DHT22;12760;46.296;25.290;2023-05-10T00:48:39;9.30;99.90
24614;DHT22;12760;46.296;25.290;2023-05-10T00:51:05;9.40;99.90
24614;DHT22;12760;46.296;25.290;2023-05-10T00:53:32;9.40;99.90
24614;DHT22;12760;46.296;25.290;2023-05-10T00:55:59;9.30;99.90
24614;DHT22;12760;46.296;25.290;2023-05-10T00:58:25;9.20;99.90
24614;DHT22;12760;46.296;25.290;2023-05-10T01:00:55;9.20;99.90
24614;DHT22;12760;46.296;25.290;2023-05-10T01:03:22;9.20;99.90
24614;DHT22;12760;46.296;25.290;2023-05-10T01:05:48;9.20;99.90
24614;DHT22;12760;46.296;25.290;2023-05-10T01:08:14;9.10;99.90
24614;DHT22;12760;46.296;25.290;2023-05-10T01:10:40;9.00;99.90
24614;DHT22;12760;46.296;25.290;2023-05-10T01:13:06;9.00;99.90
24614;DHT22;12760;46.296;25.290;2023-05-10T01:15:32;8.90;99.90
24614;DHT22;12760;46.296;25.290;2023-05-10T01:17:58;8.90;99.90
24614;DHT22;12760;46.296;25.290;2023-05-10T01:20:24;8.90;99.90
24614;DHT22;12760;46.296;25.290;2023-05-10T01:34:25;8.70;99.90
24614;DHT22;12760;46.296;25.290;2023-05-10T01:37:10;8.50;99.90
24614;DHT22;12760;46.296;25.290;2023-05-10T01:39:45;8.50;99.90
24614;DHT22;12760;46.296;25.290;2023-05-10T01:42:19;8.40;99.90
24614;DHT22;12760;46.296;25.290;2023-05-10T01:45:02;8.40;99.90
24614;DHT22;12760;46.296;25.290;2023-05-10T01:47:47;8.30;99.90
24614;DHT22;12760;46.296;25.290;2023-05-10T01:50:27;8.30;99.90
24614;DHT22;12760;46.296;25.290;2023-05-10T01:52:56;8.40;99.90
24614;DHT22;12760;46.296;25.290;2023-05-10T01:55:27;8.30;99.90
24614;DHT22;12760;46.296;25.290;2023-05-10T01:58:07;8.30;99.90
24614;DHT22;12760;46.296;25.290;2023-05-10T02:00:34;8.40;99.90
24614;DHT22;12760;46.296;25.290;2023-05-10T02:03:05;8.20;99.90
24614;DHT22;12760;46.296;25.290;2023-05-10T02:05:32;8.20;99.90
24614;DHT22;12760;46.296;25.290;2023-05-10T02:07:59;8.20;99.90
24614;DHT22;12760;46.296;25.290;2023-05-10T02:10:28;7.90;99.90
24614;DHT22;12760;46.296;25.290;2023-05-10T02:12:55;8.00;99.90
24614;DHT22;12760;46.296;25.290;2023-05-10T02:15:24;8.10;99.90
24614;DHT22;12760;46.296;25.290;2023-05-10T02:17:52;8.10;99.90
24614;DHT22;12760;46.296;25.290;2023-05-10T02:20:20;8.10;99.90
24614;DHT22;12760;46.296;25.290;2023-05-10T02:22:49;8.20;99.90
24614;DHT22;12760;46.296;25.290;2023-05-10T02:25:17;8.10;99.90
24614;DHT22;12760;46.296;25.290;2023-05-10T02:27:43;8.10;99.90
24614;DHT22;12760;46.296;25.290;2023-05-10T02:30:10;8.00;99.90
24614;DHT22;12760;46.296;25.290;2023-05-10T02:32:36;8.00;99.90
24614;DHT22;12760;46.296;25.290;2023-05-10T02:35:03;8.00;99.90
24614;DHT22;12760;46.296;25.290;2023-05-10T02:37:30;8.00;99.90
24614;DHT22;12760;46.296;25.290;2023-05-10T02:39:58;7.80;99.90
24614;DHT22;12760;46.296;25.290;2023-05-10T02:42:28;7.70;99.90
24614;DHT22;12760;46.296;25.290;2023-05-10T02:44:59;7.80;99.90
24614;DHT22;12760;46.296;25.290;2023-05-10T02:47:25;7.60;99.90
24614;DHT22;12760;46.296;25.290;2023-05-10T02:49:51;7.60;99.90
24614;DHT22;12760;46.296;25.290;2023-05-10T02:52:23;7.60;99.90
24614;DHT22;12760;46.296;25.290;2023-05-10T02:54:50;7.70;99.90
24614;DHT22;12760;46.296;25.290;2023-05-10T02:57:18;7.80;99.90
24614;DHT22;12760;46.296;25.290;2023-05-10T02:59:47;7.80;99.90
24614;DHT22;12760;46.296;25.290;2023-05-10T03:02:13;7.80;99.90
24614;DHT22;12760;46.296;25.290;2023-05-10T03:04:39;7.70;99.90
24614;DHT22;12760;46.296;25.290;2023-05-10T03:07:05;7.80;99.90
24614;DHT22;12760;46.296;25.290;2023-05-10T03:09:31;7.50;99.90
24614;DHT22;12760;46.296;25.290;2023-05-10T03:15:11;7.60;99.90
24614;DHT22;12760;46.296;25.290;2023-05-10T03:17:55;7.60;99.90
24614;DHT22;12760;46.296;25.290;2023-05-10T03:20:46;7.70;99.90
24614;DHT22;12760;46.296;25.290;2023-05-10T03:25:44;7.70;99.90
24614;DHT22;12760;46.296;25.290;2023-05-10T03:28:12;7.70;99.90
24614;DHT22;12760;46.296;25.290;2023-05-10T03:30:41;7.60;99.90
24614;DHT22;12760;46.296;25.290;2023-05-10T03:33:07;7.60;99.90
24614;DHT22;12760;46.296;25.290;2023-05-10T03:35:33;7.70;99.90
24614;DHT22;12760;46.296;25.290;2023-05-10T03:37:59;7.80;99.90
24614;DHT22;12760;46.296;25.290;2023-05-10T03:40:26;7.80;99.90
24614;DHT22;12760;46.296;25.290;2023-05-10T03:42:52;7.80;99.90
24614;DHT22;12760;46.296;25.290;2023-05-10T03:45:17;7.60;99.90
24614;DHT22;12760;46.296;25.290;2023-05-10T03:47:43;7.60;99.90
24614;DHT22;12760;46.296;25.290;2023-05-10T03:50:09;7.60;99.90
24614;DHT22;12760;46.296;25.290;2023-05-10T03:52:35;7.60;99.90
24614;DHT22;12760;46.296;25.290;2023-05-10T03:55:01;7.60;99.90
24614;DHT22;12760;46.296;25.290;2023-05-10T03:57:29;7.60;99.90
24614;DHT22;12760;46.296;25.290;2023-05-10T03:59:54;7.50;99.90
24614;DHT22;12760;46.296;25.290;2023-05-10T04:02:20;7.60;99.90
24614;DHT22;12760;46.296;25.290;2023-05-10T04:04:46;7.50;99.90
24614;DHT22;12760;46.296;25.290;2023-05-10T04:07:11;7.60;99.90
24614;DHT22;12760;46.296;25.290;2023-05-10T04:09:37;7.60;99.90
24614;DHT22;12760;46.296;25.290;2023-05-10T04:12:03;7.60;99.90
24614;DHT22;12760;46.296;25.290;2023-05-10T04:14:29;7.60;99.90
24614;DHT22;12760;46.296;25.290;2023-05-10T04:16:54;7.60;99.90
24614;DHT22;12760;46.296;25.290;2023-05-10T04:19:20;7.60;99.90
24614;DHT22;12760;46.296;25.290;2023-05-10T04:21:46;7.60;99.90
24614;DHT22;12760;46.296;25.290;2023-05-10T04:24:12;7.70;99.90
24614;DHT22;12760;46.296;25.290;2023-05-10T04:26:37;7.70;99.90
24614;DHT22;12760;46.296;25.290;2023-05-10T04:29:03;7.60;99.90
24614;DHT22;12760;46.296;25.290;2023-05-10T04:31:29;7.60;99.90
24614;DHT22;12760;46.296;25.290;2023-05-10T04:33:54;7.70;99.90
24614;DHT22;12760;46.296;25.290;2023-05-10T04:36:20;7.70;99.90
24614;DHT22;12760;46.296;25.290;2023-05-10T04:38:46;7.60;99.90
24614;DHT22;12760;46.296;25.290;2023-05-10T04:41:12;7.70;99.90
24614;DHT22;12760;46.296;25.290;2023-05-10T04:43:38;7.60;99.90
24614;DHT22;12760;46.296;25.290;2023-05-10T04:46:04;7.70;99.90
24614;DHT22;12760;46.296;25.290;2023-05-10T04:48:30;7.80;99.90
24614;DHT22;12760;46.296;25.290;2023-05-10T04:50:56;7.90;99.90
24614;DHT22;12760;46.296;25.290;2023-05-10T04:53:22;8.00;99.90
24614;DHT22;12760;46.296;25.290;2023-05-10T04:55:47;8.00;99.90
24614;DHT22;12760;46.296;25.290;2023-05-10T04:58:14;7.90;99.90
24614;DHT22;12760;46.296;25.290;2023-05-10T05:00:39;8.00;99.90
24614;DHT22;12760;46.296;25.290;2023-05-10T05:03:05;8.10;99.90
24614;DHT22;12760;46.296;25.290;2023-05-10T05:05:31;8.10;99.90
24614;DHT22;12760;46.296;25.290;2023-05-10T05:07:57;8.10;99.90
24614;DHT22;12760;46.296;25.290;2023-05-10T05:10:22;8.30;99.90
24614;DHT22;12760;46.296;25.290;2023-05-10T05:12:48;8.30;99.90
24614;DHT22;12760;46.296;25.290;2023-05-10T05:15:14;8.40;99.90
24614;DHT22;12760;46.296;25.290;2023-05-10T05:17:42;8.40;99.90
24614;DHT22;12760;46.296;25.290;2023-05-10T05:20:08;8.50;99.90
24614;DHT22;12760;46.296;25.290;2023-05-10T05:22:36;8.60;99.90
24614;DHT22;12760;46.296;25.290;2023-05-10T05:25:02;8.60;99.90
24614;DHT22;12760;46.296;25.290;2023-05-10T05:27:29;8.60;99.90
24614;DHT22;12760;46.296;25.290;2023-05-10T05:29:58;8.60;99.90
24614;DHT22;12760;46.296;25.290;2023-05-10T05:32:24;8.70;99.90
24614;DHT22;12760;46.296;25.290;2023-05-10T05:34:50;8.80;99.90
24614;DHT22;12760;46.296;25.290;2023-05-10T05:37:20;9.00;99.90
24614;DHT22;12760;46.296;25.290;2023-05-10T05:39:50;9.10;99.90
24614;DHT22;12760;46.296;25.290;2023-05-10T05:42:15;9.30;99.90
24614;DHT22;12760;46.296;25.290;2023-05-10T05:44:43;9.60;99.90
24614;DHT22;12760;46.296;25.290;2023-05-10T05:47:08;9.90;99.90
24614;DHT22;12760;46.296;25.290;2023-05-10T05:49:34;10.10;99.90
24614;DHT22;12760;46.296;25.290;2023-05-10T05:52:01;10.40;99.90
24614;DHT22;12760;46.296;25.290;2023-05-10T05:54:27;10.60;99.90
24614;DHT22;12760;46.296;25.290;2023-05-10T05:56:57;10.90;99.90
24614;DHT22;12760;46.296;25.290;2023-05-10T05:59:24;11.10;99.90
24614;DHT22;12760;46.296;25.290;2023-05-10T06:01:50;11.40;99.90
24614;DHT22;12760;46.296;25.290;2023-05-10T06:04:16;11.60;99.90
24614;DHT22;12760;46.296;25.290;2023-05-10T06:06:41;11.70;99.90
24614;DHT22;12760;46.296;25.290;2023-05-10T06:09:08;11.90;99.90
24614;DHT22;12760;46.296;25.290;2023-05-10T06:11:34;12.20;99.90
24614;DHT22;12760;46.296;25.290;2023-05-10T06:14:00;12.50;99.90
24614;DHT22;12760;46.296;25.290;2023-05-10T06:16:27;12.80;99.90
24614;DHT22;12760;46.296;25.290;2023-05-10T06:18:53;13.10;99.90
24614;DHT22;12760;46.296;25.290;2023-05-10T06:21:19;13.40;99.90
24614;DHT22;12760;46.296;25.290;2023-05-10T06:23:44;13.70;99.90
24614;DHT22;12760;46.296;25.290;2023-05-10T06:26:10;13.80;99.80
24614;DHT22;12760;46.296;25.290;2023-05-10T06:28:36;13.80;98.40
24614;DHT22;12760;46.296;25.290;2023-05-10T06:31:05;13.80;98.80
24614;DHT22;12760;46.296;25.290;2023-05-10T06:33:32;13.90;98.70
24614;DHT22;12760;46.296;25.290;2023-05-10T06:35:58;14.00;98.40
24614;DHT22;12760;46.296;25.290;2023-05-10T06:38:23;14.10;98.70
24614;DHT22;12760;46.296;25.290;2023-05-10T06:40:49;14.20;98.90
24614;DHT22;12760;46.296;25.290;2023-05-10T06:43:15;14.30;97.40
24614;DHT22;12760;46.296;25.290;2023-05-10T06:45:41;14.40;97.60
24614;DHT22;12760;46.296;25.290;2023-05-10T06:48:07;14.50;98.80
24614;DHT22;12760;46.296;25.290;2023-05-10T06:50:33;14.80;98.70
24614;DHT22;12760;46.296;25.290;2023-05-10T06:52:59;15.00;98.40
24614;DHT22;12760;46.296;25.290;2023-05-10T06:55:25;15.20;96.90
24614;DHT22;12760;46.296;25.290;2023-05-10T06:57:51;15.40;97.10
24614;DHT22;12760;46.296;25.290;2023-05-10T07:00:18;15.60;96.40
24614;DHT22;12760;46.296;25.290;2023-05-10T07:02:44;15.60;95.80
24614;DHT22;12760;46.296;25.290;2023-05-10T07:05:10;15.70;97.30
24614;DHT22;12760;46.296;25.290;2023-05-10T07:07:35;15.60;95.90
24614;DHT22;12760;46.296;25.290;2023-05-10T07:10:01;15.30;95.80
24614;DHT22;12760;46.296;25.290;2023-05-10T07:12:27;15.60;96.20
24614;DHT22;12760;46.296;25.290;2023-05-10T07:14:53;15.90;97.10
24614;DHT22;12760;46.296;25.290;2023-05-10T07:17:19;16.00;94.50
24614;DHT22;12760;46.296;25.290;2023-05-10T07:19:45;16.20;95.80
24614;DHT22;12760;46.296;25.290;2023-05-10T07:22:11;16.30;96.20
24614;DHT22;12760;46.296;25.290;2023-05-10T07:24:36;16.30;94.70
24614;DHT22;12760;46.296;25.290;2023-05-10T07:27:02;16.30;93.90
24614;DHT22;12760;46.296;25.290;2023-05-10T07:29:28;16.30;95.00
24614;DHT22;12760;46.296;25.290;2023-05-10T07:31:54;16.40;94.10
24614;DHT22;12760;46.296;25.290;2023-05-10T07:34:20;16.30;94.20
24614;DHT22;12760;46.296;25.290;2023-05-10T07:36:45;16.30;95.20
24614;DHT22;12760;46.296;25.290;2023-05-10T07:39:11;16.50;94.40
24614;DHT22;12760;46.296;25.290;2023-05-10T07:41:37;16.70;94.10
24614;DHT22;12760;46.296;25.290;2023-05-10T07:44:04;16.80;94.50
24614;DHT22;12760;46.296;25.290;2023-05-10T07:46:30;16.70;94.00
24614;DHT22;12760;46.296;25.290;2023-05-10T07:48:56;16.90;93.70
24614;DHT22;12760;46.296;25.290;2023-05-10T07:51:22;17.20;94.30
24614;DHT22;12760;46.296;25.290;2023-05-10T07:53:47;16.90;93.20
24614;DHT22;12760;46.296;25.290;2023-05-10T07:58:46;16.60;94.20
24614;DHT22;12760;46.296;25.290;2023-05-10T08:01:12;16.80;94.90
24614;DHT22;12760;46.296;25.290;2023-05-10T08:03:38;16.80;93.90
24614;DHT22;12760;46.296;25.290;2023-05-10T08:06:03;16.70;94.00
24614;DHT22;12760;46.296;25.290;2023-05-10T08:08:29;16.50;93.40
24614;DHT22;12760;46.296;25.290;2023-05-10T08:10:55;16.20;94.40
24614;DHT22;12760;46.296;25.290;2023-05-10T08:13:21;16.00;93.90
24614;DHT22;12760;46.296;25.290;2023-05-10T08:15:46;15.90;94.60
24614;DHT22;12760;46.296;25.290;2023-05-10T08:18:12;16.00;95.20
24614;DHT22;12760;46.296;25.290;2023-05-10T08:20:38;15.90;94.40
24614;DHT22;12760;46.296;25.290;2023-05-10T08:23:05;15.80;94.00
24614;DHT22;12760;46.296;25.290;2023-05-10T08:25:31;15.90;94.30
24614;DHT22;12760;46.296;25.290;2023-05-10T08:27:57;15.70;93.70
24614;DHT22;12760;46.296;25.290;2023-05-10T08:30:23;15.70;94.40
24614;DHT22;12760;46.296;25.290;2023-05-10T08:32:49;15.70;94.80
24614;DHT22;12760;46.296;25.290;2023-05-10T08:35:15;15.50;94.10
24614;DHT22;12760;46.296;25.290;2023-05-10T08:37:41;15.60;94.90
24614;DHT22;12760;46.296;25.290;2023-05-10T08:40:08;15.60;94.60
24614;DHT22;12760;46.296;25.290;2023-05-10T08:42:40;15.70;95.30
24614;DHT22;12760;46.296;25.290;2023-05-10T08:45:10;15.70;94.00
24614;DHT22;12760;46.296;25.290;2023-05-10T08:47:39;15.70;94.40
24614;DHT22;12760;46.296;25.290;2023-05-10T08:50:06;15.70;93.80
24614;DHT22;12760;46.296;25.290;2023-05-10T08:52:33;15.80;94.90
24614;DHT22;12760;46.296;25.290;2023-05-10T08:55:02;15.80;94.90
24614;DHT22;12760;46.296;25.290;2023-05-10T08:57:28;15.90;94.60
24614;DHT22;12760;46.296;25.290;2023-05-10T08:59:54;15.90;94.40
24614;DHT22;12760;46.296;25.290;2023-05-10T09:02:20;16.00;94.40
24614;DHT22;12760;46.296;25.290;2023-05-10T09:04:46;16.00;93.80
24614;DHT22;12760;46.296;25.290;2023-05-10T09:07:12;15.90;93.60
24614;DHT22;12760;46.296;25.290;2023-05-10T09:09:38;16.00;94.20
24614;DHT22;12760;46.296;25.290;2023-05-10T09:12:04;16.00;94.60
24614;DHT22;12760;46.296;25.290;2023-05-10T09:14:30;16.00;94.10
24614;DHT22;12760;46.296;25.290;2023-05-10T09:16:56;16.10;93.30
24614;DHT22;12760;46.296;25.290;2023-05-10T09:19:22;16.10;92.20
24614;DHT22;12760;46.296;25.290;2023-05-10T09:21:48;16.10;93.00
24614;DHT22;12760;46.296;25.290;2023-05-10T09:24:14;16.00;92.70
24614;DHT22;12760;46.296;25.290;2023-05-10T09:26:47;15.80;92.90
24614;DHT22;12760;46.296;25.290;2023-05-10T09:29:14;15.90;93.90
24614;DHT22;12760;46.296;25.290;2023-05-10T09:31:52;15.90;93.00
24614;DHT22;12760;46.296;25.290;2023-05-10T09:34:29;15.80;93.80
24614;DHT22;12760;46.296;25.290;2023-05-10T09:36:59;15.90;94.00
24614;DHT22;12760;46.296;25.290;2023-05-10T09:39:33;15.90;94.40
24614;DHT22;12760;46.296;25.290;2023-05-10T09:42:04;16.00;94.00
24614;DHT22;12760;46.296;25.290;2023-05-10T09:44:31;16.10;94.60
24614;DHT22;12760;46.296;25.290;2023-05-10T09:46:57;16.20;94.40
24614;DHT22;12760;46.296;25.290;2023-05-10T09:49:24;16.10;93.30
24614;DHT22;12760;46.296;25.290;2023-05-10T09:52:06;16.20;94.30
24614;DHT22;12760;46.296;25.290;2023-05-10T09:54:33;16.20;93.90
24614;DHT22;12760;46.296;25.290;2023-05-10T09:56:59;16.30;94.20
24614;DHT22;12760;46.296;25.290;2023-05-10T09:59:26;16.20;92.10
24614;DHT22;12760;46.296;25.290;2023-05-10T10:01:57;16.30;92.80
24614;DHT22;12760;46.296;25.290;2023-05-10T10:04:23;16.20;91.80
24614;DHT22;12760;46.296;25.290;2023-05-10T10:07:03;16.30;92.90
24614;DHT22;12760;46.296;25.290;2023-05-10T10:09:29;16.30;93.40
24614;DHT22;12760;46.296;25.290;2023-05-10T10:11:55;16.10;91.90
24614;DHT22;12760;46.296;25.290;2023-05-10T10:14:22;16.10;92.50
24614;DHT22;12760;46.296;25.290;2023-05-10T10:16:50;16.20;92.40
24614;DHT22;12760;46.296;25.290;2023-05-10T10:19:20;16.30;92.30
24614;DHT22;12760;46.296;25.290;2023-05-10T10:21:50;16.20;91.40
24614;DHT22;12760;46.296;25.290;2023-05-10T10:24:16;16.10;92.10
24614;DHT22;12760;46.296;25.290;2023-05-10T10:26:42;16.30;92.50
24614;DHT22;12760;46.296;25.290;2023-05-10T10:31:45;16.40;91.80
24614;DHT22;12760;46.296;25.290;2023-05-10T10:34:26;16.60;91.70
24614;DHT22;12760;46.296;25.290;2023-05-10T10:36:57;16.70;91.10
24614;DHT22;12760;46.296;25.290;2023-05-10T10:39:24;16.80;91.10
24614;DHT22;12760;46.296;25.290;2023-05-10T10:41:54;16.80;91.80
24614;DHT22;12760;46.296;25.290;2023-05-10T10:47:05;16.70;90.90
24614;DHT22;12760;46.296;25.290;2023-05-10T10:52:27;16.80;91.40
24614;DHT22;12760;46.296;25.290;2023-05-10T10:57:54;17.00;91.30
24614;DHT22;12760;46.296;25.290;2023-05-10T11:05:24;17.40;91.70
24614;DHT22;12760;46.296;25.290;2023-05-10T11:07:55;17.50;91.70
24614;DHT22;12760;46.296;25.290;2023-05-10T11:10:22;17.80;92.00
24614;DHT22;12760;46.296;25.290;2023-05-10T11:13:05;17.80;91.80
24614;DHT22;12760;46.296;25.290;2023-05-10T11:15:39;17.90;91.80
24614;DHT22;12760;46.296;25.290;2023-05-10T11:18:17;18.00;91.50
24614;DHT22;12760;46.296;25.290;2023-05-10T11:20:44;18.00;90.60
24614;DHT22;12760;46.296;25.290;2023-05-10T11:23:15;17.90;91.20
24614;DHT22;12760;46.296;25.290;2023-05-10T11:25:44;17.70;91.90
24614;DHT22;12760;46.296;25.290;2023-05-10T11:28:10;17.60;90.70
24614;DHT22;12760;46.296;25.290;2023-05-10T11:30:41;17.40;90.40
24614;DHT22;12760;46.296;25.290;2023-05-10T11:33:14;17.40;90.90
24614;DHT22;12760;46.296;25.290;2023-05-10T11:35:41;17.40;90.30
24614;DHT22;12760;46.296;25.290;2023-05-10T11:38:07;17.60;91.00
24614;DHT22;12760;46.296;25.290;2023-05-10T11:40:34;17.70;90.50
24614;DHT22;12760;46.296;25.290;2023-05-10T11:43:00;17.60;89.00
24614;DHT22;12760;46.296;25.290;2023-05-10T11:45:26;17.60;87.00
24614;DHT22;12760;46.296;25.290;2023-05-10T11:47:53;17.50;89.10
24614;DHT22;12760;46.296;25.290;2023-05-10T11:50:19;17.50;87.10
24614;DHT22;12760;46.296;25.290;2023-05-10T11:52:44;17.50;87.80
24614;DHT22;12760;46.296;25.290;2023-05-10T11:55:10;17.70;88.70
24614;DHT22;12760;46.296;25.290;2023-05-10T11:57:37;17.90;89.00
24614;DHT22;12760;46.296;25.290;2023-05-10T12:00:04;17.90;90.00
24614;DHT22;12760;46.296;25.290;2023-05-10T12:02:30;17.90;90.60
24614;DHT22;12760;46.296;25.290;2023-05-10T12:04:56;18.00;90.20
24614;DHT22;12760;46.296;25.290;2023-05-10T12:07:22;17.90;90.30
24614;DHT22;12760;46.296;25.290;2023-05-10T12:12:41;17.70;89.70
24614;DHT22;12760;46.296;25.290;2023-05-10T12:15:27;17.30;90.20
24614;DHT22;12760;46.296;25.290;2023-05-10T12:17:53;17.30;90.10
24614;DHT22;12760;46.296;25.290;2023-05-10T12:20:20;17.40;88.70
24614;DHT22;12760;46.296;25.290;2023-05-10T12:22:57;17.50;90.00
24614;DHT22;12760;46.296;25.290;2023-05-10T12:25:29;17.60;90.70
24614;DHT22;12760;46.296;25.290;2023-05-10T12:27:57;17.60;88.90
24614;DHT22;12760;46.296;25.290;2023-05-10T12:30:31;17.60;89.00
24614;DHT22;12760;46.296;25.290;2023-05-10T12:35:49;17.50;90.40
24614;DHT22;12760;46.296;25.290;2023-05-10T12:38:30;17.60;87.70
24614;DHT22;12760;46.296;25.290;2023-05-10T12:41:05;17.80;89.10
24614;DHT22;12760;46.296;25.290;2023-05-10T12:43:32;17.90;89.60
24614;DHT22;12760;46.296;25.290;2023-05-10T12:45:58;18.00;89.10
24614;DHT22;12760;46.296;25.290;2023-05-10T12:48:24;18.10;87.50
24614;DHT22;12760;46.296;25.290;2023-05-10T12:50:50;18.30;89.60
24614;DHT22;12760;46.296;25.290;2023-05-10T12:53:16;18.40;86.30
24614;DHT22;12760;46.296;25.290;2023-05-10T12:55:42;18.00;86.50
24614;DHT22;12760;46.296;25.290;2023-05-10T12:58:08;18.00;87.50
24614;DHT22;12760;46.296;25.290;2023-05-10T13:00:34;18.00;86.80
24614;DHT22;12760;46.296;25.290;2023-05-10T13:02:59;18.00;87.70
24614;DHT22;12760;46.296;25.290;2023-05-10T13:05:25;17.80;89.90
24614;DHT22;12760;46.296;25.290;2023-05-10T13:07:51;17.60;88.20
24614;DHT22;12760;46.296;25.290;2023-05-10T13:10:17;17.50;90.10
24614;DHT22;12760;46.296;25.290;2023-05-10T13:12:42;17.60;87.90
24614;DHT22;12760;46.296;25.290;2023-05-10T13:15:08;17.60;89.70
24614;DHT22;12760;46.296;25.290;2023-05-10T13:17:34;17.70;90.40
24614;DHT22;12760;46.296;25.290;2023-05-10T13:20:00;17.80;90.00
24614;DHT22;12760;46.296;25.290;2023-05-10T13:22:26;18.00;89.60
24614;DHT22;12760;46.296;25.290;2023-05-10T13:24:51;18.10;87.60
24614;DHT22;12760;46.296;25.290;2023-05-10T13:27:17;17.90;86.70
24614;DHT22;12760;46.296;25.290;2023-05-10T13:29:43;17.80;87.00
24614;DHT22;12760;46.296;25.290;2023-05-10T13:32:08;17.90;89.70
24614;DHT22;12760;46.296;25.290;2023-05-10T13:34:34;17.90;90.10
24614;DHT22;12760;46.296;25.290;2023-05-10T13:37:01;17.90;88.40
24614;DHT22;12760;46.296;25.290;2023-05-10T13:39:27;17.90;89.00
24614;DHT22;12760;46.296;25.290;2023-05-10T13:41:52;17.70;89.60
24614;DHT22;12760;46.296;25.290;2023-05-10T13:44:20;17.60;90.00
24614;DHT22;12760;46.296;25.290;2023-05-10T13:46:46;17.60;90.00
24614;DHT22;12760;46.296;25.290;2023-05-10T13:49:12;17.50;89.30
24614;DHT22;12760;46.296;25.290;2023-05-10T13:51:37;17.40;89.60
24614;DHT22;12760;46.296;25.290;2023-05-10T13:54:03;17.40;90.20
24614;DHT22;12760;46.296;25.290;2023-05-10T13:56:29;17.50;90.20
24614;DHT22;12760;46.296;25.290;2023-05-10T13:58:56;17.40;88.80
24614;DHT22;12760;46.296;25.290;2023-05-10T14:01:22;17.30;90.40
24614;DHT22;12760;46.296;25.290;2023-05-10T14:03:48;17.50;90.90
24614;DHT22;12760;46.296;25.290;2023-05-10T14:06:14;17.60;90.70
24614;DHT22;12760;46.296;25.290;2023-05-10T14:08:40;17.70;90.40
24614;DHT22;12760;46.296;25.290;2023-05-10T14:11:06;17.60;90.20
24614;DHT22;12760;46.296;25.290;2023-05-10T14:13:32;17.50;90.00
24614;DHT22;12760;46.296;25.290;2023-05-10T14:15:58;17.60;90.30
24614;DHT22;12760;46.296;25.290;2023-05-10T14:18:26;17.70;90.20
24614;DHT22;12760;46.296;25.290;2023-05-10T14:20:52;17.80;90.20
24614;DHT22;12760;46.296;25.290;2023-05-10T14:23:18;17.90;90.40
24614;DHT22;12760;46.296;25.290;2023-05-10T14:25:49;18.00;89.80
24614;DHT22;12760;46.296;25.290;2023-05-10T14:28:15;17.90;87.80
24614;DHT22;12760;46.296;25.290;2023-05-10T14:30:41;18.00;90.30
24614;DHT22;12760;46.296;25.290;2023-05-10T14:33:07;17.80;88.60
24614;DHT22;12760;46.296;25.290;2023-05-10T14:35:33;17.90;88.50
24614;DHT22;12760;46.296;25.290;2023-05-10T14:37:58;17.90;89.00
24614;DHT22;12760;46.296;25.290;2023-05-10T14:40:24;17.80;89.50
24614;DHT22;12760;46.296;25.290;2023-05-10T14:42:50;17.80;87.90
24614;DHT22;12760;46.296;25.290;2023-05-10T14:45:17;17.80;88.70
24614;DHT22;12760;46.296;25.290;2023-05-10T14:47:43;17.40;86.70
24614;DHT22;12760;46.296;25.290;2023-05-10T14:50:09;17.40;89.70
24614;DHT22;12760;46.296;25.290;2023-05-10T14:52:35;17.40;89.80
24614;DHT22;12760;46.296;25.290;2023-05-10T14:55:01;17.50;90.40
24614;DHT22;12760;46.296;25.290;2023-05-10T14:57:27;17.50;90.40
24614;DHT22;12760;46.296;25.290;2023-05-10T14:59:55;17.40;91.30
24614;DHT22;12760;46.296;25.290;2023-05-10T15:02:21;17.40;91.50
24614;DHT22;12760;46.296;25.290;2023-05-10T15:04:47;17.20;91.40
24614;DHT22;12760;46.296;25.290;2023-05-10T15:07:13;17.20;91.30
24614;DHT22;12760;46.296;25.290;2023-05-10T15:09:41;17.20;91.20
24614;DHT22;12760;46.296;25.290;2023-05-10T15:12:07;17.20;91.50
24614;DHT22;12760;46.296;25.290;2023-05-10T15:14:33;17.40;91.70
24614;DHT22;12760;46.296;25.290;2023-05-10T15:16:59;17.50;91.30
24614;DHT22;12760;46.296;25.290;2023-05-10T15:19:25;17.50;90.90
24614;DHT22;12760;46.296;25.290;2023-05-10T15:21:51;17.30;90.80
24614;DHT22;12760;46.296;25.290;2023-05-10T15:24:16;17.20;90.80
24614;DHT22;12760;46.296;25.290;2023-05-10T15:26:43;17.40;90.60
24614;DHT22;12760;46.296;25.290;2023-05-10T15:29:09;17.40;90.60
24614;DHT22;12760;46.296;25.290;2023-05-10T15:31:34;17.40;90.00
24614;DHT22;12760;46.296;25.290;2023-05-10T15:34:01;17.30;90.40
24614;DHT22;12760;46.296;25.290;2023-05-10T15:36:27;17.20;91.00
24614;DHT22;12760;46.296;25.290;2023-05-10T15:38:55;17.00;91.00
24614;DHT22;12760;46.296;25.290;2023-05-10T15:41:21;17.00;91.20
24614;DHT22;12760;46.296;25.290;2023-05-10T15:43:47;16.80;91.20
24614;DHT22;12760;46.296;25.290;2023-05-10T15:46:13;16.90;91.70
24614;DHT22;12760;46.296;25.290;2023-05-10T15:48:38;16.80;91.70
24614;DHT22;12760;46.296;25.290;2023-05-10T15:51:04;16.80;91.70
24614;DHT22;12760;46.296;25.290;2023-05-10T15:53:30;16.90;91.90
24614;DHT22;12760;46.296;25.290;2023-05-10T15:55:56;16.90;92.30
24614;DHT22;12760;46.296;25.290;2023-05-10T15:58:21;16.90;92.00
24614;DHT22;12760;46.296;25.290;2023-05-10T16:00:47;16.90;92.30
24614;DHT22;12760;46.296;25.290;2023-05-10T16:03:13;17.00;92.60